South Plainfield, New Jersey
Current Conditions -  °F | °C
As of 12:15 AM on Sunday 23 Nov 2014 (Local Time) from KLDJ Reporting Station
Broken Clouds Broken Clouds  
Wind Chill: 43°   Ceiling: 12000
Heat Index: 47°   Visibility: 10mi
Dew Point: 24°   Wind: 8mph
Humidity: 40%   Direction: 260°W
Pressure: 30.23"   Gusts: NA
Location:  40.58°N, 74.42°W
Report Text: KLDJ 230515Z AUTO 26007KT 10SM BKN120 08/M05 A3023 RMK AO2 T00831046
Loading
Personal Weather Stations






























Interactive Weather Map New forecast layout! Learn more

10-Day Weather Forecast

Advertisements
Track Severe Weather on mobile